Time;durP1;ratioP1;P1;durP2;ratioP2;P2;SDS_P1;SDS_P2;PMS_P1;PMS_P2;Temp;Humidity;BMP_temperature;BMP_pressure;BME280_temperature;BME280_humidity;BME280_pressure;Samples;Min_cycle;Max_cycle;Signal;HPM_P1;HPM_P2
2022/08/20 00:01:00;;;;;;;16.42;14.82;;;;;;;19.24;95.47;101478.66;5007679;28;20140;-73
2022/08/20 00:03:28;;;;;;;15.52;13.95;;;;;;;19.22;95.81;101480.66;4991399;28;20132;-73
2022/08/20 00:05:58;;;;;;;16.15;14.48;;;;;;;19.20;96.21;101477.34;5001880;28;20030;-74
2022/08/20 00:08:24;;;;;;;16.80;15.10;;;;;;;19.23;95.50;101477.03;5002651;28;20038;-73
2022/08/20 00:10:51;;;;;;;17.60;15.80;;;;;;;19.21;95.95;101484.25;5019096;28;20128;-73
2022/08/20 00:13:21;;;;;;;16.35;14.77;;;;;;;19.25;95.86;101480.31;5006287;28;20033;-73
2022/08/20 00:15:47;;;;;;;16.55;14.73;;;;;;;19.21;96.04;101473.72;5016272;28;20037;-74
2022/08/20 00:18:14;;;;;;;16.55;14.15;;;;;;;19.19;96.16;101466.00;5005587;28;20033;-72
2022/08/20 00:20:43;;;;;;;17.02;15.30;;;;;;;19.16;96.26;101473.41;5005032;28;20081;-73
2022/08/20 00:23:09;;;;;;;15.68;14.07;;;;;;;19.20;96.01;101478.16;4990837;28;20018;-73
2022/08/20 00:25:35;;;;;;;15.50;13.75;;;;;;;19.21;95.84;101476.34;5017934;28;20420;-73
2022/08/20 00:28:02;;;;;;;15.35;13.85;;;;;;;19.18;95.94;101479.31;5008254;28;20071;-73
2022/08/20 00:30:28;;;;;;;16.65;14.90;;;;;;;19.21;95.77;101473.72;5007251;28;20022;-73
2022/08/20 00:32:57;;;;;;;15.50;13.90;;;;;;;19.24;95.34;101478.66;5003418;28;20038;-73
2022/08/20 00:35:26;;;;;;;15.38;13.82;;;;;;;19.26;95.32;101476.69;5001664;28;20101;-73
2022/08/20 00:37:52;;;;;;;15.50;13.90;;;;;;;19.19;95.79;101480.97;5000656;28;20029;-73
2022/08/20 00:40:22;;;;;;;16.38;14.10;;;;;;;19.06;96.13;101469.16;5007350;28;20087;-73
2022/08/20 00:42:52;;;;;;;16.08;14.45;;;;;;;19.17;96.14;101477.69;5002951;28;20429;-73
2022/08/20 00:45:19;;;;;;;15.98;13.95;;;;;;;19.17;96.26;101483.78;4999609;28;20473;-73
2022/08/20 00:47:46;;;;;;;16.33;13.37;;;;;;;19.14;96.59;101473.56;4998641;28;20117;-73
2022/08/20 00:50:16;;;;;;;15.43;12.82;;;;;;;19.17;96.41;101477.69;5009652;28;20495;-73
2022/08/20 00:52:44;;;;;;;14.35;12.57;;;;;;;19.14;96.21;101472.75;5004290;28;20036;-73
2022/08/20 00:55:11;;;;;;;14.13;12.15;;;;;;;19.19;96.01;101475.72;5008029;28;20028;-72
2022/08/20 00:57:41;;;;;;;13.05;11.57;;;;;;;19.09;96.20;101466.16;5014994;28;20466;-72
2022/08/20 01:00:13;;;;;;;13.02;11.40;;;;;;;19.25;95.87;101472.41;5013079;28;20132;-73
2022/08/20 01:02:41;;;;;;;12.65;11.35;;;;;;;19.24;95.80;101479.47;5005317;28;20033;-73
2022/08/20 01:05:08;;;;;;;13.25;11.85;;;;;;;19.12;95.86;101469.47;5008344;28;20032;-73
2022/08/20 01:07:35;;;;;;;13.50;11.55;;;;;;;19.13;96.18;101471.09;5005567;28;20050;-73
2022/08/20 01:10:06;;;;;;;13.55;11.73;;;;;;;19.10;96.77;101483.63;4996735;28;20022;-72
2022/08/20 01:12:32;;;;;;;13.95;11.63;;;;;;;19.05;96.88;101475.41;5002628;28;20030;-72
2022/08/20 01:15:00;;;;;;;13.30;11.52;;;;;;;19.20;96.62;101477.34;5007094;28;20409;-73
2022/08/20 01:17:28;;;;;;;;;;;;;;;19.38;95.38;101467.44;5006742;28;20084;-73
2022/08/20 01:19:57;;;;;;;13.10;11.50;;;;;;;19.35;95.16;101471.25;5004284;28;20365;-72
2022/08/20 01:26:11;;;;;;;12.55;10.82;;;;;;;19.32;95.23;101470.75;4997066;28;20080;-73
2022/08/20 01:28:55;;;;;;;15.07;11.63;;;;;;;19.21;96.25;101468.47;4907748;29;20039;-73
2022/08/20 01:31:26;;;;;;;12.60;11.25;;;;;;;19.22;95.92;101472.75;4904995;29;20395;-73
2022/08/20 01:33:54;;;;;;;13.90;11.57;;;;;;;19.07;96.51;101468.16;4907757;29;20110;-73
2022/08/20 01:36:29;;;;;;;13.43;11.90;;;;;;;19.09;96.58;101471.44;4906778;29;20044;-72
2022/08/20 01:38:56;;;;;;;16.38;12.20;;;;;;;19.13;96.20;101464.03;4907571;29;20460;-71
2022/08/20 01:41:35;;;;;;;12.98;11.52;;;;;;;19.18;96.18;101466.19;4915953;29;20051;-72
2022/08/20 01:44:01;;;;;;;12.88;11.45;;;;;;;19.23;95.35;101466.50;4907585;29;20482;-73
2022/08/20 01:46:31;;;;;;;15.52;11.30;;;;;;;19.13;96.13;101471.09;4907450;29;20527;-73
2022/08/20 01:48:58;;;;;;;12.63;11.30;;;;;;;19.19;95.97;101470.44;4907774;29;20044;-72
2022/08/20 01:51:28;;;;;;;14.10;11.25;;;;;;;19.19;95.18;101467.81;4908075;29;20059;-73
2022/08/20 01:53:56;;;;;;;13.85;11.77;;;;;;;19.20;94.97;101469.47;4915617;29;20051;-73
2022/08/20 01:56:27;;;;;;;13.40;11.18;;;;;;;19.18;95.58;101468.81;4906346;29;20032;-73
2022/08/20 01:58:55;;;;;;;13.48;11.20;;;;;;;19.04;96.07;101473.75;4931926;28;20046;-73
2022/08/20 02:01:31;;;;;;;14.05;11.75;;;;;;;18.96;96.55;101475.53;5003852;28;20026;-73
2022/08/20 02:03:58;;;;;;;12.50;11.18;;;;;;;19.00;96.49;101469.81;5004840;28;20117;-73
2022/08/20 02:06:24;;;;;;;12.90;11.60;;;;;;;19.02;96.56;101480.97;5011666;28;20025;-73
2022/08/20 02:08:58;;;;;;;15.00;11.65;;;;;;;18.87;96.83;101472.13;4988509;28;20355;-73
2022/08/20 02:11:27;;;;;;;13.57;11.57;;;;;;;18.97;96.72;101471.94;4998045;28;20057;-72
2022/08/20 02:13:53;;;;;;;14.27;11.98;;;;;;;18.80;97.29;101465.84;5001147;28;20350;-73
2022/08/20 02:16:29;;;;;;;13.88;12.35;;;;;;;18.78;97.80;101473.06;5004678;28;20068;-73
2022/08/20 02:18:59;;;;;;;14.30;12.32;;;;;;;18.75;97.86;101468.13;5006416;28;20034;-73
2022/08/20 02:21:27;;;;;;;14.13;12.27;;;;;;;18.78;98.22;101480.97;5001838;28;20030;-73
2022/08/20 02:23:54;;;;;;;13.45;11.95;;;;;;;18.86;97.83;101475.69;5014209;28;20034;-72
2022/08/20 02:26:19;;;;;;;14.82;11.25;;;;;;;18.83;98.02;101470.78;5011576;28;20041;-72
2022/08/20 02:28:49;;;;;;;13.43;11.32;;;;;;;18.82;97.56;101480.47;4995829;28;20041;-72
2022/08/20 02:31:16;;;;;;;12.35;10.95;;;;;;;18.88;97.35;101468.50;5011663;28;20022;-72
2022/08/20 02:33:42;;;;;;;13.23;11.60;;;;;;;18.81;96.95;101475.41;5000590;28;20108;-73
2022/08/20 02:36:09;;;;;;;14.60;12.30;;;;;;;18.77;97.21;101481.94;4996298;28;20018;-72
2022/08/20 02:38:37;;;;;;;14.85;11.98;;;;;;;18.75;96.99;101468.13;4994007;28;20422;-72
2022/08/20 02:41:03;;;;;;;13.20;11.10;;;;;;;18.72;97.07;101484.25;4999066;28;20050;-73
2022/08/20 02:43:30;;;;;;;14.48;11.85;;;;;;;18.77;96.79;101481.94;5007362;28;20089;-73
2022/08/20 02:45:56;;;;;;;13.43;12.02;;;;;;;18.67;96.68;101484.72;5006143;28;20346;-73
2022/08/20 02:48:22;;;;;;;14.02;11.95;;;;;;;18.70;96.23;101475.72;5005079;28;20488;-72
2022/08/20 02:50:50;;;;;;;14.73;12.23;;;;;;;18.68;96.38;101482.91;5009718;28;20036;-72
2022/08/20 02:53:16;;;;;;;14.57;12.73;;;;;;;18.63;96.11;101485.16;5015576;28;20178;-72
2022/08/20 02:55:42;;;;;;;15.48;12.32;;;;;;;18.63;96.18;101490.41;5007582;28;20079;-73
2022/08/20 02:58:07;;;;;;;14.68;12.48;;;;;;;18.63;96.14;101482.53;4993345;28;20033;-73
2022/08/20 03:00:33;;;;;;;15.45;12.93;;;;;;;18.69;96.25;101484.56;5005751;28;20848;-72
2022/08/20 03:02:59;;;;;;;14.45;12.93;;;;;;;18.56;96.78;101491.06;5006999;28;20433;-72
2022/08/20 03:05:25;;;;;;;15.57;13.98;;;;;;;18.69;96.71;101481.91;5008603;28;20092;-72
2022/08/20 03:07:55;;;;;;;14.95;12.70;;;;;;;18.69;96.74;101482.75;4997508;28;20470;-72
2022/08/20 03:10:24;;;;;;;14.60;13.13;;;;;;;18.68;97.17;101483.72;5009893;28;20394;-72
2022/08/20 03:12:50;;;;;;;15.27;13.77;;;;;;;18.74;96.75;101477.81;5008707;28;20116;-72
2022/08/20 03:15:15;;;;;;;15.73;13.98;;;;;;;18.72;97.47;101478.97;5010199;28;20545;-73
2022/08/20 03:17:40;;;;;;;17.35;14.05;;;;;;;18.71;96.91;101470.28;5008636;28;20389;-73
2022/08/20 03:20:07;;;;;;;16.05;13.68;;;;;;;18.73;96.98;101468.31;5009888;28;20068;-73
2022/08/20 03:22:33;;;;;;;15.98;13.38;;;;;;;18.70;97.33;101470.47;5000668;28;20029;-73
2022/08/20 03:24:58;;;;;;;15.80;14.02;;;;;;;18.73;97.07;101470.94;4979290;28;20374;-73
2022/08/20 03:27:24;;;;;;;16.52;14.82;;;;;;;18.64;97.17;101463.16;4991256;28;20023;-73
2022/08/20 03:29:49;;;;;;;16.13;14.40;;;;;;;18.74;96.60;101474.38;5009310;28;20036;-73
2022/08/20 03:32:15;;;;;;;17.55;14.55;;;;;;;18.71;97.03;101472.09;5015239;28;20065;-73
2022/08/20 03:34:40;;;;;;;18.63;15.00;;;;;;;18.66;97.06;101479.59;4996455;28;20026;-73
2022/08/20 03:37:06;;;;;;;15.68;14.02;;;;;;;18.74;96.57;101487.50;5007831;28;20038;-73
2022/08/20 03:39:31;;;;;;;15.77;14.18;;;;;;;18.75;96.45;101489.16;5004744;28;20541;-73
2022/08/20 03:41:56;;;;;;;15.13;13.48;;;;;;;18.77;96.06;101487.22;4995873;28;20044;-72
2022/08/20 03:44:22;;;;;;;15.55;13.95;;;;;;;18.77;96.07;101487.22;4999837;28;20529;-72
2022/08/20 03:46:47;;;;;;;15.48;13.88;;;;;;;18.76;96.08;101483.75;5008190;28;20030;-73
2022/08/20 03:49:13;;;;;;;16.45;14.75;;;;;;;18.75;96.42;101490.00;5000046;28;20034;-73
2022/08/20 03:51:39;;;;;;;16.42;14.73;;;;;;;18.69;97.50;101484.56;4994428;28;20034;-73
2022/08/20 03:54:04;;;;;;;16.23;14.52;;;;;;;18.77;97.21;101481.94;5009089;28;20101;-73
2022/08/20 03:56:30;;;;;;;15.82;14.02;;;;;;;18.77;96.49;101479.31;5018498;28;20057;-72
2022/08/20 03:58:55;;;;;;;17.73;16.02;;;;;;;18.58;97.83;101478.63;5012112;28;20033;-73
2022/08/20 04:01:21;;;;;;;17.20;15.50;;;;;;;18.64;97.97;101481.56;5001430;28;20034;-73
2022/08/20 04:03:46;;;;;;;18.23;16.42;;;;;;;18.60;97.84;101480.25;5008913;28;20033;-73
2022/08/20 04:06:12;;;;;;;18.45;16.55;;;;;;;18.56;98.26;101480.56;5009921;28;20112;-72
2022/08/20 04:08:40;;;;;;;19.05;16.88;;;;;;;18.54;98.85;101482.53;4995824;28;20462;-73
2022/08/20 04:11:06;;;;;;;18.95;16.90;;;;;;;18.55;98.93;101486.81;5007427;28;20053;-74
2022/08/20 04:13:31;;;;;;;21.33;17.17;;;;;;;18.63;98.78;101490.41;4998359;28;20531;-72
2022/08/20 04:16:00;;;;;;;19.73;17.48;;;;;;;18.67;99.13;101491.75;5011213;28;20473;-72
2022/08/20 04:18:25;;;;;;;;;;;;;;;18.85;97.79;101495.09;4997409;28;20042;-72
2022/08/20 04:20:52;;;;;;;20.83;18.63;;;;;;;18.71;99.13;101498.38;5008166;28;20285;-72
2022/08/20 04:23:18;;;;;;;21.23;19.02;;;;;;;18.77;98.67;101495.09;4998796;28;20041;-73
2022/08/20 04:25:45;;;;;;;22.65;19.58;;;;;;;18.78;99.06;101494.09;4993887;28;20038;-72
2022/08/20 04:28:14;;;;;;;24.30;19.75;;;;;;;18.65;99.77;101499.00;5008141;28;20025;-73
2022/08/20 04:30:41;;;;;;;22.90;20.55;;;;;;;18.67;99.72;101491.75;5007740;28;20033;-72
2022/08/20 04:33:07;;;;;;;24.08;21.75;;;;;;;18.69;99.36;101492.44;4997352;28;20068;-73
2022/08/20 04:35:32;;;;;;;22.80;20.58;;;;;;;18.70;99.53;101509.88;5008971;28;20037;-73
2022/08/20 04:38:05;;;;;;;22.33;20.23;;;;;;;18.66;99.28;101506.69;5004399;28;20022;-73
2022/08/20 04:43:14;;;;;;;22.35;19.80;;;;;;;18.64;98.62;101507.81;5003451;28;20556;-73
2022/08/20 04:45:40;;;;;;;21.17;19.08;;;;;;;18.57;98.38;101503.22;5005303;28;20030;-73
2022/08/20 04:48:06;;;;;;;20.88;18.70;;;;;;;18.52;98.75;101516.03;4994027;28;20030;-73
2022/08/20 04:50:37;;;;;;;20.10;18.10;;;;;;;18.44;98.48;101510.75;5003995;28;20022;-73
2022/08/20 04:53:04;;;;;;;20.23;18.20;;;;;;;18.45;98.03;101509.75;5015351;28;20025;-73
2022/08/20 04:55:30;;;;;;;20.45;16.70;;;;;;;18.37;98.00;101517.63;5012552;28;20057;-73
2022/08/20 04:58:07;;;;;;;18.65;16.75;;;;;;;18.39;98.64;101517.47;5001801;28;20045;-73
2022/08/20 05:00:33;;;;;;;18.77;16.77;;;;;;;18.43;97.53;101524.88;4999957;28;20026;-73
2022/08/20 05:02:59;;;;;;;17.45;15.75;;;;;;;18.34;97.80;101533.69;5002918;28;20026;-73
2022/08/20 05:05:25;;;;;;;19.40;16.38;;;;;;;18.36;97.23;101530.94;5002363;28;20505;-73
2022/08/20 05:07:51;;;;;;;17.08;15.27;;;;;;;18.21;96.95;101533.31;5003828;28;20022;-74
2022/08/20 05:10:17;;;;;;;16.10;14.38;;;;;;;18.30;96.84;101542.88;5006061;28;20041;-73
2022/08/20 05:12:44;;;;;;;16.98;14.82;;;;;;;18.15;96.51;101539.19;4989347;28;20433;-72
2022/08/20 05:15:10;;;;;;;15.65;13.43;;;;;;;18.03;96.27;101530.78;5003313;28;20088;-72
2022/08/20 05:17:37;;;;;;;15.93;14.10;;;;;;;18.07;96.50;101552.31;5013698;28;20030;-73
2022/08/20 05:20:05;;;;;;;18.13;14.68;;;;;;;18.09;96.26;101545.06;5000957;28;20036;-73
2022/08/20 05:22:30;;;;;;;15.88;14.07;;;;;;;18.15;95.88;101549.69;5007845;28;20442;-73
2022/08/20 05:24:58;;;;;;;15.15;13.45;;;;;;;18.12;96.05;101547.38;4988242;28;20029;-73
2022/08/20 05:27:25;;;;;;;15.30;13.43;;;;;;;18.13;95.92;101542.00;5016125;28;20026;-73
2022/08/20 05:30:06;;;;;;;15.43;13.75;;;;;;;18.07;95.91;101537.38;5007876;28;20017;-73
2022/08/20 05:32:34;;;;;;;14.45;12.77;;;;;;;18.02;95.84;101550.13;5000138;28;20022;-73
2022/08/20 05:35:00;;;;;;;14.60;13.10;;;;;;;18.10;95.70;101546.72;4989893;28;20076;-72
2022/08/20 05:37:26;;;;;;;14.05;12.40;;;;;;;18.08;95.43;101548.69;5004184;28;20034;-73
2022/08/20 05:39:52;;;;;;;13.90;12.38;;;;;;;18.02;95.74;101555.38;4992907;28;20061;-73
2022/08/20 05:42:17;;;;;;;13.95;11.85;;;;;;;17.99;95.18;101556.50;5008416;28;20038;-73
2022/08/20 05:44:45;;;;;;;13.88;12.25;;;;;;;18.02;94.20;101556.22;5004079;28;20101;-73
2022/08/20 05:47:12;;;;;;;13.73;11.82;;;;;;;17.95;94.73;101549.94;5003542;28;20466;-73
2022/08/20 05:49:37;;;;;;;13.15;11.73;;;;;;;17.93;94.88;101565.00;4995045;28;20041;-73
2022/08/20 05:52:04;;;;;;;15.88;12.45;;;;;;;17.98;95.29;101554.84;5001588;28;20029;-73
2022/08/20 05:54:30;;;;;;;14.30;12.80;;;;;;;18.04;94.49;101569.16;5008621;28;20064;-72
2022/08/20 05:56:56;;;;;;;14.63;11.73;;;;;;;18.04;94.42;101559.50;5006432;28;20061;-73
2022/08/20 05:59:23;;;;;;;13.15;11.00;;;;;;;18.15;93.79;101560.19;4990718;28;20038;-73
2022/08/20 06:01:48;;;;;;;12.25;10.40;;;;;;;18.10;92.60;101560.66;4998169;28;20026;-73
2022/08/20 06:04:23;;;;;;;12.98;9.90;;;;;;;18.16;92.01;101567.09;4999826;28;20034;-72
2022/08/20 06:06:50;;;;;;;12.90;10.20;;;;;;;18.18;92.12;101565.13;4994630;28;20032;-73
2022/08/20 06:09:18;;;;;;;11.77;10.23;;;;;;;18.15;91.27;101575.97;4977812;28;20416;-73
2022/08/20 06:11:44;;;;;;;12.65;10.13;;;;;;;18.13;91.58;101570.03;4998766;28;20033;-73
2022/08/20 06:14:09;;;;;;;13.40;10.30;;;;;;;18.13;91.55;101567.41;5000654;28;20038;-72
2022/08/20 06:16:35;;;;;;;12.65;9.95;;;;;;;18.13;91.46;101570.03;4998284;28;20370;-73
2022/08/20 06:19:00;;;;;;;11.70;9.73;;;;;;;18.13;90.07;101573.50;4995637;28;20424;-73
2022/08/20 06:21:26;;;;;;;12.35;10.15;;;;;;;18.15;90.01;101578.59;4994590;28;20478;-73
2022/08/20 06:23:51;;;;;;;10.95;9.75;;;;;;;18.14;90.38;101574.31;4995992;28;20037;-73
2022/08/20 06:26:17;;;;;;;13.98;10.65;;;;;;;18.15;89.66;101575.97;5000552;28;20157;-73
2022/08/20 06:28:42;;;;;;;11.27;9.27;;;;;;;18.19;89.42;101577.28;4996502;28;20173;-73
2022/08/20 06:31:08;;;;;;;12.13;10.18;;;;;;;18.22;90.02;101571.72;4996137;28;20030;-73
2022/08/20 06:33:33;;;;;;;12.73;9.88;;;;;;;18.22;89.26;101575.16;4998348;28;20034;-73
2022/08/20 06:35:59;;;;;;;11.73;9.70;;;;;;;18.25;88.58;101574.03;4994647;28;20024;-73
2022/08/20 06:38:24;;;;;;;10.90;9.80;;;;;;;18.32;89.06;101580.31;4999010;28;20557;-74
2022/08/20 06:40:49;;;;;;;12.77;9.95;;;;;;;18.37;89.38;101579.84;4999893;28;20053;-73
2022/08/20 06:43:15;;;;;;;11.25;9.30;;;;;;;18.43;89.06;101585.28;4998977;28;20077;-74
2022/08/20 06:45:41;;;;;;;12.07;9.30;;;;;;;18.46;88.17;101579.69;4995604;28;20770;-74
2022/08/20 06:48:09;;;;;;;10.43;8.05;;;;;;;18.46;87.44;101584.94;4981795;28;20065;-74
2022/08/20 06:50:38;;;;;;;11.27;8.77;;;;;;;18.52;87.07;101583.50;4977842;28;20099;-73
2022/08/20 06:53:13;;;;;;;11.70;8.75;;;;;;;18.52;86.58;101591.38;4998544;28;20026;-73
2022/08/20 06:55:42;;;;;;;11.13;8.73;;;;;;;18.52;87.36;101594.00;4994537;28;20033;-73
2022/08/20 06:58:10;;;;;;;11.82;9.15;;;;;;;18.62;86.55;101601.75;5010570;28;20104;-73
2022/08/20 07:00:39;;;;;;;12.07;9.43;;;;;;;18.68;87.25;101598.53;4994095;28;20030;-74
2022/08/20 07:03:04;;;;;;;9.45;8.07;;;;;;;18.74;85.54;101593.47;5002637;28;20030;-73
2022/08/20 07:05:33;;;;;;;9.90;8.43;;;;;;;18.79;85.20;101593.81;5001267;28;20033;-73
2022/08/20 07:07:59;;;;;;;11.10;8.90;;;;;;;18.77;85.78;101587.06;5010789;28;20017;-73
2022/08/20 07:10:26;;;;;;;11.73;8.85;;;;;;;18.85;84.93;101600.22;4995868;28;20446;-73
2022/08/20 07:12:52;;;;;;;11.82;9.10;;;;;;;18.90;84.60;101597.94;5005974;28;20037;-74
2022/08/20 07:15:20;;;;;;;10.93;8.60;;;;;;;18.93;84.18;101602.88;5008349;28;20113;-73
2022/08/20 07:17:55;;;;;;;11.32;7.78;;;;;;;18.97;82.11;101604.19;5007644;28;20022;-74
2022/08/20 07:20:21;;;;;;;10.60;7.90;;;;;;;18.99;82.55;101602.25;4991153;28;20097;-73
2022/08/20 07:22:46;;;;;;;9.98;8.20;;;;;;;19.14;82.58;101604.22;4999902;28;20026;-73
2022/08/20 07:25:14;;;;;;;11.75;8.35;;;;;;;19.13;78.80;101607.84;4995106;28;20036;-74
2022/08/20 07:27:40;;;;;;;11.68;7.25;;;;;;;19.13;77.11;101607.84;5003757;28;20442;-74
2022/08/20 07:32:54;;;;;;;;;;;;;;;19.35;81.30;101623.00;5000320;28;20044;-73
2022/08/20 07:35:20;;;;;;;12.07;8.77;;;;;;;19.35;79.75;101617.75;4999460;28;19914;-73
2022/08/20 07:37:48;;;;;;;13.18;9.32;;;;;;;19.30;80.49;101620.03;5007597;28;20065;-73
2022/08/20 07:40:21;;;;;;;10.65;8.32;;;;;;;19.38;81.43;101622.66;4992420;28;20069;-74
2022/08/20 07:42:49;;;;;;;11.88;7.85;;;;;;;19.53;80.83;101621.03;5000440;28;20042;-73
2022/08/20 07:45:17;;;;;;;11.77;7.07;;;;;;;19.55;78.34;101629.56;4992892;28;20030;-73
2022/08/20 07:47:43;;;;;;;;;;;;;;;19.73;81.05;101626.00;4995678;28;20029;-73
2022/08/20 07:50:12;;;;;;;11.25;5.90;;;;;;;19.65;77.92;101618.09;4976502;28;19964;-74
2022/08/20 07:52:38;;;;;;;10.98;5.55;;;;;;;19.76;77.66;101630.94;4988656;28;20065;-73
2022/08/20 07:55:10;;;;;;;10.10;6.07;;;;;;;19.80;77.14;101637.50;4995042;28;20104;-74
2022/08/20 07:57:36;;;;;;;10.35;6.38;;;;;;;19.63;74.78;101632.25;4996795;28;20514;-74
2022/08/20 08:00:07;;;;;;;10.98;6.07;;;;;;;19.77;76.13;101632.56;5000692;28;20101;-73
2022/08/20 08:02:33;;;;;;;9.95;4.90;;;;;;;19.91;74.87;101639.81;5009039;28;20038;-73
2022/08/20 08:05:00;;;;;;;11.10;5.05;;;;;;;19.91;73.56;101639.81;5001681;28;20075;-73
2022/08/20 08:07:26;;;;;;;9.35;4.80;;;;;;;19.87;71.53;101633.22;5009365;28;20029;-73
2022/08/20 08:09:54;;;;;;;10.02;5.00;;;;;;;19.90;71.31;101646.06;5006557;28;20034;-73
2022/08/20 08:12:20;;;;;;;9.05;5.07;;;;;;;20.12;73.67;101647.97;5008560;28;20417;-73
2022/08/20 08:14:47;;;;;;;7.45;4.10;;;;;;;20.12;71.46;101647.16;5002504;28;20026;-73
2022/08/20 08:17:15;;;;;;;7.95;4.00;;;;;;;20.05;72.40;101646.19;4993546;28;21033;-73
2022/08/20 08:19:43;;;;;;;;;;;;;;;20.27;74.21;101644.69;4996007;28;20025;-73
2022/08/20 08:22:11;;;;;;;8.88;4.03;;;;;;;19.95;69.61;101646.38;5021645;28;20416;-74
2022/08/20 08:24:38;;;;;;;9.63;4.07;;;;;;;20.10;71.67;101654.41;5019432;28;20116;-74
2022/08/20 08:27:04;;;;;;;8.98;4.40;;;;;;;20.21;71.12;101655.88;5000991;28;20025;-73
2022/08/20 08:29:29;;;;;;;9.43;3.90;;;;;;;20.22;70.49;101647.81;4989086;28;20096;-73
2022/08/20 08:31:55;;;;;;;9.23;4.43;;;;;;;20.13;69.71;101654.91;4997401;28;20478;-74
2022/08/20 08:34:24;;;;;;;8.95;4.75;;;;;;;20.26;70.54;101653.56;4992623;28;20030;-74
2022/08/20 08:36:50;;;;;;;8.13;4.88;;;;;;;20.38;70.57;101654.84;4997408;28;20076;-73
2022/08/20 08:39:15;;;;;;;8.57;5.07;;;;;;;20.45;70.44;101653.19;5007345;28;20021;-73
2022/08/20 08:41:48;;;;;;;11.48;5.53;;;;;;;20.49;70.25;101665.06;4997225;28;20450;-73
2022/08/20 08:44:28;;;;;;;9.77;4.57;;;;;;;20.71;71.85;101668.78;4991547;28;20134;-73
2022/08/20 08:46:57;;;;;;;10.88;5.25;;;;;;;20.58;69.51;101669.31;5003356;28;20033;-73
2022/08/20 08:49:28;;;;;;;7.72;4.07;;;;;;;20.72;69.74;101669.59;4992833;28;20458;-74
2022/08/20 08:52:00;;;;;;;8.55;4.10;;;;;;;20.48;69.72;101668.69;4993929;28;20060;-74
2022/08/20 08:54:28;;;;;;;10.10;4.78;;;;;;;20.47;70.33;101677.56;5012205;28;20079;-72
2022/08/20 08:56:54;;;;;;;9.35;4.70;;;;;;;20.34;69.22;101671.97;5011234;28;20026;-74
2022/08/20 08:59:21;;;;;;;10.50;4.28;;;;;;;20.43;70.12;101677.06;5010044;28;20072;-74
2022/08/20 09:01:51;;;;;;;10.75;4.18;;;;;;;20.61;69.00;101674.25;4989520;28;20060;-74
2022/08/20 09:04:20;;;;;;;10.57;4.55;;;;;;;20.67;69.01;101678.84;5007210;28;20529;-73
2022/08/20 09:06:47;;;;;;;10.00;4.30;;;;;;;20.89;70.27;101676.44;5013065;28;20022;-74
2022/08/20 09:09:27;;;;;;;10.27;4.47;;;;;;;20.90;69.89;101678.09;5011832;28;20018;-73
2022/08/20 09:11:56;;;;;;;13.18;4.95;;;;;;;20.89;69.30;101684.34;5002657;28;20038;-73
2022/08/20 09:14:25;;;;;;;10.05;4.00;;;;;;;20.80;69.25;101683.56;5004948;28;20037;-73
2022/08/20 09:16:51;;;;;;;9.23;3.83;;;;;;;20.90;68.79;101672.81;5005168;28;20398;-73
2022/08/20 09:19:16;;;;;;;7.75;2.78;;;;;;;20.93;62.86;101677.72;4990959;28;20037;-73
2022/08/20 09:21:42;;;;;;;10.30;3.25;;;;;;;20.92;61.94;101684.00;4992168;28;20021;-74
2022/08/20 09:24:07;;;;;;;9.70;3.60;;;;;;;20.88;62.75;101682.72;4995433;28;20033;-73
2022/08/20 09:26:33;;;;;;;9.93;3.35;;;;;;;21.00;63.47;101683.16;4990615;28;20030;-73
2022/08/20 09:28:58;;;;;;;10.63;2.92;;;;;;;21.00;60.96;101683.97;4988132;28;20081;-73
2022/08/20 09:31:23;;;;;;;10.18;3.20;;;;;;;21.15;63.84;101686.69;4999737;28;20060;-73
2022/08/20 09:33:50;;;;;;;10.27;3.08;;;;;;;21.12;62.33;101682.59;5001355;28;20080;-73
2022/08/20 09:36:15;;;;;;;9.70;3.08;;;;;;;21.25;62.33;101684.66;5004279;28;20025;-75
2022/08/20 09:38:41;;;;;;;9.93;2.80;;;;;;;21.27;61.29;101681.81;5004005;28;20080;-73
2022/08/20 09:41:06;;;;;;;9.43;3.03;;;;;;;21.42;60.12;101678.31;5006954;28;20397;-73
2022/08/20 09:43:32;;;;;;;7.72;2.40;;;;;;;21.34;56.79;101680.19;5016990;28;20438;-73
2022/08/20 09:45:57;;;;;;;8.65;2.40;;;;;;;21.54;59.22;101676.06;5006262;28;20548;-73
2022/08/20 09:48:23;;;;;;;8.27;2.35;;;;;;;21.67;56.10;101676.28;4988618;28;20105;-74
2022/08/20 09:50:49;;;;;;;9.60;2.72;;;;;;;21.69;53.92;101679.59;5011586;28;20385;-74
2022/08/20 09:53:18;;;;;;;7.35;2.40;;;;;;;21.69;55.72;101682.22;5017746;28;20056;-74
2022/08/20 09:55:45;;;;;;;10.82;2.50;;;;;;;22.04;56.39;101676.50;5018024;28;20043;-74
2022/08/20 09:58:44;;;;;;;9.45;2.70;;;;;;;22.06;59.09;101675.28;5013588;28;20060;-74
2022/08/20 10:01:15;;;;;;;11.00;2.85;;;;;;;22.18;56.24;101673.88;5017833;28;20127;-74
2022/08/20 10:03:42;;;;;;;11.98;3.10;;;;;;;22.32;57.01;101679.38;5003300;28;20034;-73
2022/08/20 10:06:07;;;;;;;9.57;2.97;;;;;;;22.37;56.42;101677.00;5011867;28;20053;-73
2022/08/20 10:08:33;;;;;;;8.65;3.00;;;;;;;22.45;55.63;101675.09;5003551;28;20049;-73
2022/08/20 10:10:59;;;;;;;9.68;2.88;;;;;;;22.23;52.84;101682.09;4996767;28;20394;-74
2022/08/20 10:13:24;;;;;;;8.18;2.83;;;;;;;22.41;53.53;101678.28;4993218;28;20038;-74
2022/08/20 10:15:50;;;;;;;8.15;2.42;;;;;;;22.39;53.07;101675.00;4997670;28;20026;-73
2022/08/20 10:18:15;;;;;;;9.38;2.83;;;;;;;22.62;53.73;101685.47;5013759;28;20375;-74
2022/08/20 10:20:41;;;;;;;9.80;2.60;;;;;;;22.78;52.26;101682.63;5005446;28;20037;-73
2022/08/20 10:23:07;;;;;;;10.27;2.60;;;;;;;22.71;52.00;101695.78;5003510;28;20030;-74
2022/08/20 10:25:32;;;;;;;9.57;2.50;;;;;;;22.90;49.52;101688.31;4999030;28;20031;-73
2022/08/20 10:27:58;;;;;;;8.45;2.40;;;;;;;22.76;47.63;101693.38;5008538;28;20053;-74
2022/08/20 10:30:23;;;;;;;8.38;2.55;;;;;;;22.78;49.28;101691.41;5002749;28;20136;-74
2022/08/20 10:32:49;;;;;;;8.48;2.30;;;;;;;22.69;47.62;101686.38;5002807;28;20033;-73
2022/08/20 10:35:14;;;;;;;8.70;2.40;;;;;;;23.00;47.94;101684.38;4990745;28;20470;-74
2022/08/20 10:37:39;;;;;;;9.25;2.40;;;;;;;23.05;47.44;101681.13;4994514;28;20034;-74
2022/08/20 10:40:07;;;;;;;10.68;2.58;;;;;;;23.04;46.60;101684.78;4998307;28;20046;-74
2022/08/20 10:42:32;;;;;;;8.20;2.30;;;;;;;23.07;46.08;101683.63;5004267;28;20515;-73
2022/08/20 10:44:58;;;;;;;8.40;2.40;;;;;;;23.21;46.81;101702.09;4991945;28;20034;-74
2022/08/20 10:47:27;;;;;;;10.68;2.78;;;;;;;23.19;44.97;101692.72;4992597;28;20033;-72
2022/08/20 10:49:55;;;;;;;9.73;2.40;;;;;;;23.21;44.06;101693.31;5001256;28;20084;-73
2022/08/20 10:52:22;;;;;;;9.50;2.60;;;;;;;23.00;44.89;101689.66;5000206;28;20149;-74
2022/08/20 10:54:48;;;;;;;9.82;2.72;;;;;;;22.70;45.58;101694.13;4992100;28;20025;-74
2022/08/20 10:57:17;;;;;;;9.95;2.53;;;;;;;22.84;47.37;101689.84;4994683;28;20030;-74
2022/08/20 10:59:46;;;;;;;10.77;2.72;;;;;;;22.87;48.32;101688.63;4992898;28;20022;-74
2022/08/20 11:02:11;;;;;;;10.52;2.67;;;;;;;22.79;44.13;101687.75;4994344;28;20033;-75
2022/08/20 11:04:39;;;;;;;8.82;2.70;;;;;;;23.14;46.30;101687.16;4992640;28;20023;-75
2022/08/20 11:07:18;;;;;;;9.00;2.30;;;;;;;23.25;46.39;101687.47;4993820;28;20117;-74
2022/08/20 11:09:45;;;;;;;9.40;2.58;;;;;;;23.49;44.38;101698.72;5001009;28;20037;-74
2022/08/20 11:12:11;;;;;;;9.32;2.67;;;;;;;23.28;44.52;101692.41;5000165;28;20030;-73
2022/08/20 11:14:37;;;;;;;8.25;2.38;;;;;;;23.36;44.33;101693.28;4998467;28;20030;-74
2022/08/20 11:17:03;;;;;;;10.18;2.90;;;;;;;23.18;42.95;101691.88;5004547;28;20039;-74
2022/08/20 11:19:29;;;;;;;9.77;2.50;;;;;;;23.44;44.74;101690.50;5006622;28;20034;-74
2022/08/20 11:21:54;;;;;;;8.68;2.22;;;;;;;23.76;43.46;101694.50;4996912;28;20036;-75
2022/08/20 11:24:19;;;;;;;9.20;2.47;;;;;;;23.50;43.43;101695.06;5005322;28;20522;-74
2022/08/20 11:26:47;;;;;;;8.57;2.50;;;;;;;23.77;45.10;101699.63;5007326;28;20065;-76